Time,TemperatureF,DewpointF,PressureIn,WindDirection,WindDirectionDegrees,WindSpeedMPH,WindSpeedGustMPH,Humidity,HourlyPrecipIn,Conditions,Clouds,dailyrainin,SolarRadiationWatts/m^2,SoftwareType,DateUTC
2013-03-19 00:00:00,44.0,3.0,-100.00,NW,316,11.0,21.0,18,0.00,,,0.00,0.000000,,2013-03-19 07:00:00,
2013-03-19 00:32:00,44.0,3.0,-100.00,NW,316,11.0,21.0,18,0.00,,,0.00,0.000000,,2013-03-19 07:32:00,
2013-03-19 00:42:00,44.0,3.0,-100.00,NW,316,11.0,21.0,18,0.00,,,0.00,0.000000,,2013-03-19 07:42:00,
2013-03-19 00:52:00,44.0,3.0,-100.00,NW,316,11.0,21.0,18,0.00,,,0.00,0.000000,,2013-03-19 07:52:00,
2013-03-19 01:00:00,43.0,4.0,-100.00,NNW,328,8.0,18.0,19,0.00,,,0.00,0.000000,,2013-03-19 08:00:00,
2013-03-19 01:32:00,43.0,4.0,-100.00,NNW,328,8.0,18.0,19,0.00,,,0.00,0.000000,,2013-03-19 08:32:00,
2013-03-19 01:42:00,43.0,4.0,-100.00,NNW,328,8.0,18.0,19,0.00,,,0.00,0.000000,,2013-03-19 08:42:00,
2013-03-19 01:52:00,43.0,4.0,-100.00,NNW,328,8.0,18.0,19,0.00,,,0.00,0.000000,,2013-03-19 08:52:00,
2013-03-19 02:00:00,42.0,4.0,-100.00,NNW,339,7.0,16.0,20,0.00,,,0.00,0.000000,,2013-03-19 09:00:00,
2013-03-19 02:23:00,42.0,4.0,-100.00,NNW,339,7.0,16.0,20,0.00,,,0.00,0.000000,,2013-03-19 09:23:00,
2013-03-19 02:33:00,42.0,4.0,-100.00,NNW,339,7.0,16.0,20,0.00,,,0.00,0.000000,,2013-03-19 09:33:00,
2013-03-19 02:43:00,42.0,4.0,-100.00,NNW,339,7.0,16.0,20,0.00,,,0.00,0.000000,,2013-03-19 09:43:00,
2013-03-19 02:53:00,42.0,4.0,-100.00,NNW,339,7.0,16.0,20,0.00,,,0.00,0.000000,,2013-03-19 09:53:00,
2013-03-19 03:00:00,43.0,4.0,-100.00,NW,307,3.0,10.0,19,0.00,,,0.00,0.000000,,2013-03-19 10:00:00,
2013-03-19 03:33:00,43.0,4.0,-100.00,NW,307,3.0,10.0,19,0.00,,,0.00,0.000000,,2013-03-19 10:33:00,
2013-03-19 03:42:00,43.0,4.0,-100.00,NW,307,3.0,10.0,19,0.00,,,0.00,0.000000,,2013-03-19 10:42:00,
2013-03-19 03:53:00,43.0,4.0,-100.00,NW,307,3.0,10.0,19,0.00,,,0.00,0.000000,,2013-03-19 10:53:00,
2013-03-19 04:00:00,43.0,4.0,-100.00,North,351,2.0,6.0,19,0.00,,,0.00,0.000000,,2013-03-19 11:00:00,
2013-03-19 04:33:00,43.0,4.0,-100.00,North,351,2.0,6.0,19,0.00,,,0.00,0.000000,,2013-03-19 11:33:00,
2013-03-19 04:43:00,43.0,4.0,-100.00,North,351,2.0,6.0,19,0.00,,,0.00,0.000000,,2013-03-19 11:43:00,
2013-03-19 04:52:00,43.0,4.0,-100.00,North,351,2.0,6.0,19,0.00,,,0.00,0.000000,,2013-03-19 11:52:00,
2013-03-19 05:00:00,43.0,6.0,-100.00,North,353,3.0,6.0,21,0.00,,,0.00,0.000000,,2013-03-19 12:00:00,
2013-03-19 05:23:00,43.0,6.0,-100.00,North,353,3.0,6.0,21,0.00,,,0.00,0.000000,,2013-03-19 12:23:00,
2013-03-19 05:33:00,43.0,6.0,-100.00,North,353,3.0,6.0,21,0.00,,,0.00,0.000000,,2013-03-19 12:33:00,
2013-03-19 05:43:00,43.0,6.0,-100.00,North,353,3.0,6.0,21,0.00,,,0.00,0.000000,,2013-03-19 12:43:00,
2013-03-19 05:52:00,43.0,6.0,-100.00,North,353,3.0,6.0,21,0.00,,,0.00,0.000000,,2013-03-19 12:52:00,
2013-03-19 06:00:00,42.0,6.0,-100.00,NW,310,2.0,9.0,22,0.00,,,0.00,0.000000,,2013-03-19 13:00:00,
2013-03-19 06:33:00,42.0,6.0,-100.00,NW,310,2.0,9.0,22,0.00,,,0.00,0.000000,,2013-03-19 13:33:00,
2013-03-19 06:42:00,42.0,6.0,-100.00,NW,310,2.0,9.0,22,0.00,,,0.00,0.000000,,2013-03-19 13:42:00,
2013-03-19 06:52:00,42.0,6.0,-100.00,NW,310,2.0,9.0,22,0.00,,,0.00,0.000000,,2013-03-19 13:52:00,
2013-03-19 07:00:00,42.0,12.0,-100.00,North,355,7.0,18.0,29,0.00,,,0.00,0.000000,,2013-03-19 14:00:00,
2013-03-19 07:33:00,42.0,12.0,-100.00,North,355,7.0,18.0,29,0.00,,,0.00,0.000000,,2013-03-19 14:33:00,
2013-03-19 07:42:00,42.0,12.0,-100.00,North,355,7.0,18.0,29,0.00,,,0.00,0.000000,,2013-03-19 14:42:00,
2013-03-19 07:52:00,42.0,12.0,-100.00,North,355,7.0,18.0,29,0.00,,,0.00,0.000000,,2013-03-19 14:52:00,
2013-03-19 08:00:00,43.0,14.0,-100.00,NNE,23,4.0,12.0,30,0.00,,,0.00,35.000000,,2013-03-19 15:00:00,
2013-03-19 08:34:00,43.0,14.0,-100.00,NNE,23,4.0,12.0,30,0.00,,,0.00,35.000000,,2013-03-19 15:34:00,
2013-03-19 08:44:00,43.0,14.0,-100.00,NNE,23,4.0,12.0,30,0.00,,,0.00,35.000000,,2013-03-19 15:44:00,
2013-03-19 08:53:00,43.0,14.0,-100.00,NNE,23,4.0,12.0,30,0.00,,,0.00,35.000000,,2013-03-19 15:53:00,
2013-03-19 09:00:00,44.0,13.0,-100.00,NE,43,7.0,14.0,28,0.00,,,0.00,175.000000,,2013-03-19 16:00:00,
2013-03-19 09:34:00,44.0,13.0,-100.00,NE,43,7.0,14.0,28,0.00,,,0.00,175.000000,,2013-03-19 16:34:00,
2013-03-19 09:44:00,44.0,13.0,-100.00,NE,43,7.0,14.0,28,0.00,,,0.00,175.000000,,2013-03-19 16:44:00,
2013-03-19 09:54:00,44.0,13.0,-100.00,NE,43,7.0,14.0,28,0.00,,,0.00,175.000000,,2013-03-19 16:54:00,
2013-03-19 10:00:00,47.0,13.0,-100.00,NNE,20,6.0,13.0,25,0.00,,,0.00,382.000000,,2013-03-19 17:00:00,
2013-03-19 10:34:00,47.0,13.0,-100.00,NNE,20,6.0,13.0,25,0.00,,,0.00,382.000000,,2013-03-19 17:34:00,
2013-03-19 10:44:00,47.0,13.0,-100.00,NNE,20,6.0,13.0,25,0.00,,,0.00,382.000000,,2013-03-19 17:44:00,
2013-03-19 10:53:00,47.0,13.0,-100.00,NNE,20,6.0,13.0,25,0.00,,,0.00,382.000000,,2013-03-19 17:53:00,
2013-03-19 11:00:00,47.0,16.0,-100.00,North,4,6.0,14.0,29,0.00,,,0.00,647.000000,,2013-03-19 18:00:00,
2013-03-19 11:34:00,47.0,16.0,-100.00,North,4,6.0,14.0,29,0.00,,,0.00,647.000000,,2013-03-19 18:34:00,
2013-03-19 11:43:00,47.0,16.0,-100.00,North,4,6.0,14.0,29,0.00,,,0.00,647.000000,,2013-03-19 18:43:00,
2013-03-19 11:53:00,47.0,16.0,-100.00,North,4,6.0,14.0,29,0.00,,,0.00,647.000000,,2013-03-19 18:53:00,
2013-03-19 12:00:00,50.0,22.0,-100.00,NNE,17,7.0,14.0,33,0.00,,,0.00,551.000000,,2013-03-19 19:00:00,
2013-03-19 12:33:00,50.0,22.0,-100.00,NNE,17,7.0,14.0,33,0.00,,,0.00,551.000000,,2013-03-19 19:33:00,
2013-03-19 12:43:00,50.0,22.0,-100.00,NNE,17,7.0,14.0,33,0.00,,,0.00,551.000000,,2013-03-19 19:43:00,
2013-03-19 12:53:00,50.0,22.0,-100.00,NNE,17,7.0,14.0,33,0.00,,,0.00,551.000000,,2013-03-19 19:53:00,
2013-03-19 13:00:00,50.0,21.0,-100.00,NE,35,7.0,15.0,32,0.00,,,0.00,1027.000000,,2013-03-19 20:00:00,
2013-03-19 13:33:00,50.0,21.0,-100.00,NE,35,7.0,15.0,32,0.00,,,0.00,1027.000000,,2013-03-19 20:33:00,
2013-03-19 13:43:00,50.0,21.0,-100.00,NE,35,7.0,15.0,32,0.00,,,0.00,1027.000000,,2013-03-19 20:43:00,
2013-03-19 13:52:00,50.0,21.0,-100.00,NE,35,7.0,15.0,32,0.00,,,0.00,1027.000000,,2013-03-19 20:52:00,
2013-03-19 14:00:00,53.0,22.0,-100.00,NE,44,7.0,14.0,29,0.00,,,0.00,1149.000000,,2013-03-19 21:00:00,
2013-03-19 14:34:00,53.0,22.0,-100.00,NE,44,7.0,14.0,29,0.00,,,0.00,1149.000000,,2013-03-19 21:34:00,
2013-03-19 14:43:00,53.0,22.0,-100.00,NE,44,7.0,14.0,29,0.00,,,0.00,1149.000000,,2013-03-19 21:43:00,
2013-03-19 14:53:00,53.0,22.0,-100.00,NE,44,7.0,14.0,29,0.00,,,0.00,1149.000000,,2013-03-19 21:53:00,
2013-03-19 15:00:00,56.0,23.0,-100.00,SSW,202,5.0,11.0,27,0.00,,,0.00,1051.000000,,2013-03-19 22:00:00,
2013-03-19 15:33:00,56.0,23.0,-100.00,SSW,202,5.0,11.0,27,0.00,,,0.00,1051.000000,,2013-03-19 22:33:00,
2013-03-19 15:43:00,56.0,23.0,-100.00,SSW,202,5.0,11.0,27,0.00,,,0.00,1051.000000,,2013-03-19 22:43:00,
2013-03-19 15:53:00,56.0,23.0,-100.00,SSW,202,5.0,11.0,27,0.00,,,0.00,1051.000000,,2013-03-19 22:53:00,
2013-03-19 16:00:00,55.0,22.0,-100.00,NW,315,5.0,11.0,27,0.00,,,0.00,894.000000,,2013-03-19 23:00:00,
2013-03-19 16:22:00,55.0,22.0,-100.00,NW,315,5.0,11.0,27,0.00,,,0.00,894.000000,,2013-03-19 23:22:00,
2013-03-19 16:33:00,55.0,22.0,-100.00,NW,315,5.0,11.0,27,0.00,,,0.00,894.000000,,2013-03-19 23:33:00,
2013-03-19 16:43:00,55.0,22.0,-100.00,NW,315,5.0,11.0,27,0.00,,,0.00,894.000000,,2013-03-19 23:43:00,
2013-03-19 16:52:00,55.0,22.0,-100.00,NW,315,5.0,11.0,27,0.00,,,0.00,894.000000,,2013-03-19 23:52:00,
2013-03-19 17:00:00,55.0,21.0,-100.00,NE,50,4.0,10.0,26,0.00,,,0.00,658.000000,,2013-03-20 00:00:00,
2013-03-19 17:33:00,55.0,21.0,-100.00,NE,50,4.0,10.0,26,0.00,,,0.00,658.000000,,2013-03-20 00:33:00,
2013-03-19 17:42:00,55.0,21.0,-100.00,NE,50,4.0,10.0,26,0.00,,,0.00,658.000000,,2013-03-20 00:42:00,
2013-03-19 17:52:00,55.0,21.0,-100.00,NE,50,4.0,10.0,26,0.00,,,0.00,658.000000,,2013-03-20 00:52:00,
2013-03-19 18:00:00,52.0,22.0,-100.00,West,276,2.0,10.0,30,0.00,,,0.00,380.000000,,2013-03-20 01:00:00,
2013-03-19 18:23:00,52.0,22.0,-100.00,West,276,2.0,10.0,30,0.00,,,0.00,380.000000,,2013-03-20 01:23:00,
2013-03-19 18:32:00,52.0,22.0,-100.00,West,276,2.0,10.0,30,0.00,,,0.00,380.000000,,2013-03-20 01:32:00,
2013-03-19 18:43:00,52.0,22.0,-100.00,West,276,2.0,10.0,30,0.00,,,0.00,380.000000,,2013-03-20 01:43:00,
2013-03-19 18:52:00,52.0,22.0,-100.00,West,276,2.0,10.0,30,0.00,,,0.00,380.000000,,2013-03-20 01:52:00,
2013-03-19 19:00:00,43.0,22.0,-100.00,ENE,69,1.0,6.0,43,0.00,,,0.00,79.000000,,2013-03-20 02:00:00,
2013-03-19 19:23:00,43.0,22.0,-100.00,ENE,69,1.0,6.0,43,0.00,,,0.00,79.000000,,2013-03-20 02:23:00,
2013-03-19 19:32:00,43.0,22.0,-100.00,ENE,69,1.0,6.0,43,0.00,,,0.00,79.000000,,2013-03-20 02:32:00,
2013-03-19 19:43:00,43.0,22.0,-100.00,ENE,69,1.0,6.0,43,0.00,,,0.00,79.000000,,2013-03-20 02:43:00,
2013-03-19 19:52:00,43.0,22.0,-100.00,ENE,69,1.0,6.0,43,0.00,,,0.00,79.000000,,2013-03-20 02:52:00,
2013-03-19 20:00:00,41.0,22.0,-100.00,WNW,300,0.0,4.0,46,0.00,,,0.00,0.000000,,2013-03-20 03:00:00,
2013-03-19 20:34:00,41.0,22.0,-100.00,WNW,300,0.0,4.0,46,0.00,,,0.00,0.000000,,2013-03-20 03:34:00,
2013-03-19 20:43:00,41.0,22.0,-100.00,WNW,300,0.0,4.0,46,0.00,,,0.00,0.000000,,2013-03-20 03:43:00,
2013-03-19 20:53:00,41.0,22.0,-100.00,WNW,300,0.0,4.0,46,0.00,,,0.00,0.000000,,2013-03-20 03:53:00,
2013-03-19 21:00:00,40.0,21.0,-100.00,WSW,245,0.0,3.0,47,0.00,,,0.00,0.000000,,2013-03-20 04:00:00,
2013-03-19 21:23:00,40.0,21.0,-100.00,WSW,245,0.0,3.0,47,0.00,,,0.00,0.000000,,2013-03-20 04:23:00,
2013-03-19 21:32:00,40.0,21.0,-100.00,WSW,245,0.0,3.0,47,0.00,,,0.00,0.000000,,2013-03-20 04:32:00,
2013-03-19 21:43:00,40.0,21.0,-100.00,WSW,245,0.0,3.0,47,0.00,,,0.00,0.000000,,2013-03-20 04:43:00,
2013-03-19 21:52:00,40.0,21.0,-100.00,WSW,245,0.0,3.0,47,0.00,,,0.00,0.000000,,2013-03-20 04:52:00,
2013-03-19 22:00:00,39.0,22.0,-100.00,ESE,114,1.0,4.0,50,0.00,,,0.00,0.000000,,2013-03-20 05:00:00,
2013-03-19 22:32:00,39.0,22.0,-100.00,ESE,114,1.0,4.0,50,0.00,,,0.00,0.000000,,2013-03-20 05:32:00,
2013-03-19 22:42:00,39.0,22.0,-100.00,ESE,114,1.0,4.0,50,0.00,,,0.00,0.000000,,2013-03-20 05:42:00,
2013-03-19 22:52:00,39.0,22.0,-100.00,ESE,114,1.0,4.0,50,0.00,,,0.00,0.000000,,2013-03-20 05:52:00,
2013-03-19 23:00:00,40.0,22.0,-100.00,SE,136,2.0,4.0,48,0.00,,,0.00,0.000000,,2013-03-20 06:00:00,
2013-03-19 23:32:00,40.0,22.0,-100.00,SE,136,2.0,4.0,48,0.00,,,0.00,0.000000,,2013-03-20 06:32:00,
2013-03-19 23:43:00,40.0,22.0,-100.00,SE,136,2.0,4.0,48,0.00,,,0.00,0.000000,,2013-03-20 06:43:00,
2013-03-19 23:52:00,40.0,22.0,-100.00,SE,136,2.0,4.0,48,0.00,,,0.00,0.000000,,2013-03-20 06:52:00,